sensor_id;sensor_type;location;lat;lon;timestamp;P1;durP1;ratioP1;P2;durP2;ratioP2
5129;SDS011;2583;50.946;6.954;2023-02-02T00:01:22;15.60;;;4.87;;
5129;SDS011;2583;50.946;6.954;2023-02-02T00:03:49;22.53;;;4.53;;
5129;SDS011;2583;50.946;6.954;2023-02-02T00:06:20;24.07;;;4.60;;
5129;SDS011;2583;50.946;6.954;2023-02-02T00:08:48;13.23;;;4.30;;
5129;SDS011;2583;50.946;6.954;2023-02-02T00:11:15;16.90;;;4.30;;
5129;SDS011;2583;50.946;6.954;2023-02-02T00:13:43;16.73;;;4.57;;
5129;SDS011;2583;50.946;6.954;2023-02-02T00:18:53;12.88;;;3.58;;
5129;SDS011;2583;50.946;6.954;2023-02-02T00:21:22;20.27;;;3.60;;
5129;SDS011;2583;50.946;6.954;2023-02-02T00:23:49;14.70;;;4.57;;
5129;SDS011;2583;50.946;6.954;2023-02-02T00:26:16;13.67;;;4.20;;
5129;SDS011;2583;50.946;6.954;2023-02-02T00:28:44;17.60;;;4.30;;
5129;SDS011;2583;50.946;6.954;2023-02-02T00:31:11;16.20;;;4.10;;
5129;SDS011;2583;50.946;6.954;2023-02-02T00:33:37;20.30;;;6.03;;
5129;SDS011;2583;50.946;6.954;2023-02-02T00:36:06;15.80;;;4.70;;
5129;SDS011;2583;50.946;6.954;2023-02-02T00:38:33;13.77;;;3.95;;
5129;SDS011;2583;50.946;6.954;2023-02-02T00:41:00;17.17;;;4.07;;
5129;SDS011;2583;50.946;6.954;2023-02-02T00:43:27;13.23;;;4.27;;
5129;SDS011;2583;50.946;6.954;2023-02-02T00:45:53;13.20;;;4.80;;
5129;SDS011;2583;50.946;6.954;2023-02-02T00:48:21;17.73;;;4.40;;
5129;SDS011;2583;50.946;6.954;2023-02-02T00:50:47;20.80;;;4.73;;
5129;SDS011;2583;50.946;6.954;2023-02-02T00:53:14;14.17;;;4.87;;
5129;SDS011;2583;50.946;6.954;2023-02-02T00:55:41;15.90;;;3.80;;
5129;SDS011;2583;50.946;6.954;2023-02-02T00:58:08;19.90;;;4.00;;
5129;SDS011;2583;50.946;6.954;2023-02-02T01:00:34;18.75;;;3.60;;
5129;SDS011;2583;50.946;6.954;2023-02-02T01:03:02;14.27;;;3.77;;
5129;SDS011;2583;50.946;6.954;2023-02-02T01:05:30;21.43;;;5.10;;
5129;SDS011;2583;50.946;6.954;2023-02-02T01:07:57;20.60;;;4.70;;
5129;SDS011;2583;50.946;6.954;2023-02-02T01:10:24;14.37;;;4.30;;
5129;SDS011;2583;50.946;6.954;2023-02-02T01:12:51;15.63;;;4.40;;
5129;SDS011;2583;50.946;6.954;2023-02-02T01:15:18;16.98;;;4.63;;
5129;SDS011;2583;50.946;6.954;2023-02-02T01:17:45;16.67;;;4.37;;
5129;SDS011;2583;50.946;6.954;2023-02-02T01:20:16;18.92;;;4.63;;
5129;SDS011;2583;50.946;6.954;2023-02-02T01:22:44;16.17;;;3.80;;
5129;SDS011;2583;50.946;6.954;2023-02-02T01:25:12;12.93;;;3.90;;
5129;SDS011;2583;50.946;6.954;2023-02-02T01:27:39;12.57;;;4.50;;
5129;SDS011;2583;50.946;6.954;2023-02-02T01:30:08;11.33;;;3.67;;
5129;SDS011;2583;50.946;6.954;2023-02-02T01:32:35;13.20;;;4.13;;
5129;SDS011;2583;50.946;6.954;2023-02-02T01:35:02;12.17;;;3.77;;
5129;SDS011;2583;50.946;6.954;2023-02-02T01:37:29;17.33;;;5.33;;
5129;SDS011;2583;50.946;6.954;2023-02-02T01:39:56;16.47;;;4.43;;
5129;SDS011;2583;50.946;6.954;2023-02-02T01:42:22;20.17;;;5.13;;
5129;SDS011;2583;50.946;6.954;2023-02-02T01:47:42;17.90;;;3.90;;
5129;SDS011;2583;50.946;6.954;2023-02-02T01:50:13;15.33;;;4.07;;
5129;SDS011;2583;50.946;6.954;2023-02-02T01:52:45;19.90;;;4.50;;
5129;SDS011;2583;50.946;6.954;2023-02-02T01:55:16;18.50;;;4.67;;
5129;SDS011;2583;50.946;6.954;2023-02-02T02:00:17;13.03;;;3.90;;
5129;SDS011;2583;50.946;6.954;2023-02-02T02:02:51;20.67;;;5.47;;
5129;SDS011;2583;50.946;6.954;2023-02-02T02:05:26;12.50;;;4.50;;
5129;SDS011;2583;50.946;6.954;2023-02-02T02:08:09;17.73;;;4.13;;
5129;SDS011;2583;50.946;6.954;2023-02-02T02:10:43;15.23;;;4.60;;
5129;SDS011;2583;50.946;6.954;2023-02-02T02:13:10;15.33;;;4.23;;
5129;SDS011;2583;50.946;6.954;2023-02-02T02:15:40;17.90;;;4.87;;
5129;SDS011;2583;50.946;6.954;2023-02-02T02:24:33;18.97;;;4.50;;
5129;SDS011;2583;50.946;6.954;2023-02-02T02:33:19;15.63;;;4.00;;
5129;SDS011;2583;50.946;6.954;2023-02-02T02:36:16;17.50;;;3.97;;
5129;SDS011;2583;50.946;6.954;2023-02-02T02:39:00;22.00;;;4.47;;
5129;SDS011;2583;50.946;6.954;2023-02-02T02:41:30;21.20;;;4.70;;
5129;SDS011;2583;50.946;6.954;2023-02-02T02:44:03;18.07;;;4.07;;
5129;SDS011;2583;50.946;6.954;2023-02-02T02:46:33;21.17;;;4.90;;
5129;SDS011;2583;50.946;6.954;2023-02-02T02:49:01;15.10;;;4.33;;
5129;SDS011;2583;50.946;6.954;2023-02-02T02:51:45;20.47;;;5.20;;
5129;SDS011;2583;50.946;6.954;2023-02-02T02:54:36;20.00;;;5.40;;
5129;SDS011;2583;50.946;6.954;2023-02-02T03:00:00;19.83;;;5.00;;
5129;SDS011;2583;50.946;6.954;2023-02-02T03:02:38;14.27;;;4.00;;
5129;SDS011;2583;50.946;6.954;2023-02-02T03:08:21;15.47;;;5.40;;
5129;SDS011;2583;50.946;6.954;2023-02-02T03:11:03;12.83;;;5.10;;
5129;SDS011;2583;50.946;6.954;2023-02-02T03:13:32;14.13;;;5.40;;
5129;SDS011;2583;50.946;6.954;2023-02-02T03:16:00;14.07;;;5.20;;
5129;SDS011;2583;50.946;6.954;2023-02-02T03:18:27;11.33;;;4.53;;
5129;SDS011;2583;50.946;6.954;2023-02-02T03:20:56;22.38;;;5.90;;
5129;SDS011;2583;50.946;6.954;2023-02-02T03:23:23;23.27;;;5.68;;
5129;SDS011;2583;50.946;6.954;2023-02-02T03:25:50;15.03;;;5.70;;
5129;SDS011;2583;50.946;6.954;2023-02-02T03:28:17;14.40;;;5.50;;
5129;SDS011;2583;50.946;6.954;2023-02-02T03:30:46;18.23;;;5.93;;
5129;SDS011;2583;50.946;6.954;2023-02-02T03:33:13;15.52;;;5.20;;
5129;SDS011;2583;50.946;6.954;2023-02-02T03:35:41;11.65;;;4.38;;
5129;SDS011;2583;50.946;6.954;2023-02-02T03:38:08;14.97;;;6.10;;
5129;SDS011;2583;50.946;6.954;2023-02-02T03:40:35;16.53;;;5.53;;
5129;SDS011;2583;50.946;6.954;2023-02-02T03:43:02;17.83;;;6.50;;
5129;SDS011;2583;50.946;6.954;2023-02-02T03:45:29;27.35;;;6.82;;
5129;SDS011;2583;50.946;6.954;2023-02-02T03:47:57;18.90;;;5.60;;
5129;SDS011;2583;50.946;6.954;2023-02-02T03:50:24;17.03;;;5.27;;
5129;SDS011;2583;50.946;6.954;2023-02-02T03:52:50;27.55;;;6.18;;
5129;SDS011;2583;50.946;6.954;2023-02-02T03:55:18;15.77;;;7.20;;
5129;SDS011;2583;50.946;6.954;2023-02-02T03:57:45;20.33;;;5.80;;
5129;SDS011;2583;50.946;6.954;2023-02-02T04:00:12;30.10;;;5.87;;
5129;SDS011;2583;50.946;6.954;2023-02-02T04:02:39;29.33;;;6.17;;
5129;SDS011;2583;50.946;6.954;2023-02-02T04:05:07;19.37;;;5.93;;
5129;SDS011;2583;50.946;6.954;2023-02-02T04:07:34;14.73;;;6.70;;
5129;SDS011;2583;50.946;6.954;2023-02-02T04:10:01;13.85;;;5.82;;
5129;SDS011;2583;50.946;6.954;2023-02-02T04:12:28;24.23;;;5.93;;
5129;SDS011;2583;50.946;6.954;2023-02-02T04:14:55;20.40;;;5.80;;
5129;SDS011;2583;50.946;6.954;2023-02-02T04:17:21;22.30;;;6.23;;
5129;SDS011;2583;50.946;6.954;2023-02-02T04:19:48;19.23;;;6.43;;
5129;SDS011;2583;50.946;6.954;2023-02-02T04:22:18;17.37;;;5.93;;
5129;SDS011;2583;50.946;6.954;2023-02-02T04:24:44;13.50;;;5.82;;
5129;SDS011;2583;50.946;6.954;2023-02-02T04:27:11;23.20;;;6.07;;
5129;SDS011;2583;50.946;6.954;2023-02-02T04:29:38;16.53;;;5.17;;
5129;SDS011;2583;50.946;6.954;2023-02-02T04:32:05;14.80;;;5.10;;
5129;SDS011;2583;50.946;6.954;2023-02-02T04:34:31;15.77;;;5.57;;
5129;SDS011;2583;50.946;6.954;2023-02-02T04:36:58;17.33;;;5.43;;
5129;SDS011;2583;50.946;6.954;2023-02-02T04:39:25;18.90;;;5.88;;
5129;SDS011;2583;50.946;6.954;2023-02-02T04:41:52;25.63;;;6.13;;
5129;SDS011;2583;50.946;6.954;2023-02-02T04:44:19;20.20;;;6.00;;
5129;SDS011;2583;50.946;6.954;2023-02-02T04:46:45;16.93;;;6.63;;
5129;SDS011;2583;50.946;6.954;2023-02-02T04:49:12;12.03;;;5.63;;
5129;SDS011;2583;50.946;6.954;2023-02-02T04:51:39;17.97;;;6.40;;
5129;SDS011;2583;50.946;6.954;2023-02-02T04:54:06;19.60;;;6.30;;
5129;SDS011;2583;50.946;6.954;2023-02-02T04:56:33;20.90;;;7.50;;
5129;SDS011;2583;50.946;6.954;2023-02-02T04:59:00;27.83;;;7.00;;
5129;SDS011;2583;50.946;6.954;2023-02-02T05:01:27;28.40;;;7.43;;
5129;SDS011;2583;50.946;6.954;2023-02-02T05:03:56;21.50;;;6.43;;
5129;SDS011;2583;50.946;6.954;2023-02-02T05:06:23;25.40;;;7.45;;
5129;SDS011;2583;50.946;6.954;2023-02-02T05:08:50;21.80;;;6.63;;
5129;SDS011;2583;50.946;6.954;2023-02-02T05:11:18;22.13;;;6.37;;
5129;SDS011;2583;50.946;6.954;2023-02-02T05:13:46;19.93;;;6.90;;
5129;SDS011;2583;50.946;6.954;2023-02-02T05:16:15;20.00;;;7.00;;
5129;SDS011;2583;50.946;6.954;2023-02-02T05:18:42;17.73;;;6.78;;
5129;SDS011;2583;50.946;6.954;2023-02-02T05:21:13;32.20;;;8.13;;
5129;SDS011;2583;50.946;6.954;2023-02-02T05:23:40;18.80;;;7.70;;
5129;SDS011;2583;50.946;6.954;2023-02-02T05:26:09;23.90;;;7.17;;
5129;SDS011;2583;50.946;6.954;2023-02-02T05:28:44;27.07;;;7.90;;
5129;SDS011;2583;50.946;6.954;2023-02-02T05:31:11;26.83;;;7.67;;
5129;SDS011;2583;50.946;6.954;2023-02-02T05:33:38;18.60;;;6.80;;
5129;SDS011;2583;50.946;6.954;2023-02-02T05:36:05;23.87;;;7.03;;
5129;SDS011;2583;50.946;6.954;2023-02-02T05:38:32;24.37;;;8.20;;
5129;SDS011;2583;50.946;6.954;2023-02-02T05:40:59;24.70;;;8.20;;
5129;SDS011;2583;50.946;6.954;2023-02-02T05:43:27;23.67;;;6.82;;
5129;SDS011;2583;50.946;6.954;2023-02-02T05:45:55;20.70;;;7.00;;
5129;SDS011;2583;50.946;6.954;2023-02-02T05:48:22;16.10;;;7.10;;
5129;SDS011;2583;50.946;6.954;2023-02-02T05:50:54;17.80;;;6.87;;
5129;SDS011;2583;50.946;6.954;2023-02-02T05:53:29;19.20;;;7.73;;
5129;SDS011;2583;50.946;6.954;2023-02-02T05:55:57;21.23;;;7.20;;
5129;SDS011;2583;50.946;6.954;2023-02-02T05:58:24;18.93;;;7.53;;
5129;SDS011;2583;50.946;6.954;2023-02-02T06:00:51;34.13;;;8.10;;
5129;SDS011;2583;50.946;6.954;2023-02-02T06:03:21;24.33;;;7.70;;
5129;SDS011;2583;50.946;6.954;2023-02-02T06:05:48;22.63;;;7.30;;
5129;SDS011;2583;50.946;6.954;2023-02-02T06:08:15;16.23;;;6.53;;
5129;SDS011;2583;50.946;6.954;2023-02-02T06:10:42;27.53;;;7.23;;
5129;SDS011;2583;50.946;6.954;2023-02-02T06:13:09;12.77;;;6.57;;
5129;SDS011;2583;50.946;6.954;2023-02-02T06:15:36;24.20;;;7.00;;
5129;SDS011;2583;50.946;6.954;2023-02-02T06:18:03;15.07;;;7.40;;
5129;SDS011;2583;50.946;6.954;2023-02-02T06:20:32;16.35;;;7.13;;
5129;SDS011;2583;50.946;6.954;2023-02-02T06:22:59;21.43;;;6.23;;
5129;SDS011;2583;50.946;6.954;2023-02-02T06:25:26;17.30;;;6.93;;
5129;SDS011;2583;50.946;6.954;2023-02-02T06:27:56;26.43;;;7.70;;
5129;SDS011;2583;50.946;6.954;2023-02-02T06:30:24;16.53;;;7.40;;
5129;SDS011;2583;50.946;6.954;2023-02-02T06:32:52;15.90;;;7.30;;
5129;SDS011;2583;50.946;6.954;2023-02-02T06:35:19;13.80;;;8.67;;
5129;SDS011;2583;50.946;6.954;2023-02-02T06:37:46;18.48;;;7.82;;
5129;SDS011;2583;50.946;6.954;2023-02-02T06:40:12;14.30;;;7.17;;
5129;SDS011;2583;50.946;6.954;2023-02-02T06:42:39;15.88;;;7.15;;
5129;SDS011;2583;50.946;6.954;2023-02-02T06:45:06;18.10;;;6.90;;
5129;SDS011;2583;50.946;6.954;2023-02-02T06:47:33;22.70;;;6.93;;
5129;SDS011;2583;50.946;6.954;2023-02-02T06:50:00;14.90;;;7.83;;
5129;SDS011;2583;50.946;6.954;2023-02-02T06:52:27;15.97;;;7.70;;
5129;SDS011;2583;50.946;6.954;2023-02-02T06:54:54;21.20;;;8.00;;
5129;SDS011;2583;50.946;6.954;2023-02-02T06:57:20;20.43;;;7.90;;
5129;SDS011;2583;50.946;6.954;2023-02-02T06:59:47;21.40;;;7.27;;
5129;SDS011;2583;50.946;6.954;2023-02-02T07:02:15;18.17;;;8.10;;
5129;SDS011;2583;50.946;6.954;2023-02-02T07:04:42;17.60;;;7.70;;
5129;SDS011;2583;50.946;6.954;2023-02-02T07:07:09;21.42;;;7.70;;
5129;SDS011;2583;50.946;6.954;2023-02-02T07:09:35;19.90;;;7.20;;
5129;SDS011;2583;50.946;6.954;2023-02-02T07:12:02;17.43;;;7.60;;
5129;SDS011;2583;50.946;6.954;2023-02-02T07:14:29;22.67;;;7.60;;
5129;SDS011;2583;50.946;6.954;2023-02-02T07:16:56;18.30;;;7.33;;
5129;SDS011;2583;50.946;6.954;2023-02-02T07:19:22;15.60;;;7.50;;
5129;SDS011;2583;50.946;6.954;2023-02-02T07:21:49;21.50;;;8.10;;
5129;SDS011;2583;50.946;6.954;2023-02-02T07:24:16;13.57;;;7.73;;
5129;SDS011;2583;50.946;6.954;2023-02-02T07:26:43;17.47;;;8.23;;
5129;SDS011;2583;50.946;6.954;2023-02-02T07:29:11;20.77;;;7.70;;
5129;SDS011;2583;50.946;6.954;2023-02-02T07:31:41;17.33;;;7.00;;
5129;SDS011;2583;50.946;6.954;2023-02-02T07:34:08;11.73;;;7.97;;
5129;SDS011;2583;50.946;6.954;2023-02-02T07:36:35;17.13;;;6.23;;
5129;SDS011;2583;50.946;6.954;2023-02-02T07:39:02;26.00;;;7.37;;
5129;SDS011;2583;50.946;6.954;2023-02-02T07:41:30;20.48;;;7.82;;
5129;SDS011;2583;50.946;6.954;2023-02-02T07:43:59;18.93;;;7.80;;
5129;SDS011;2583;50.946;6.954;2023-02-02T07:46:26;15.97;;;8.20;;
5129;SDS011;2583;50.946;6.954;2023-02-02T07:48:53;13.90;;;7.20;;
5129;SDS011;2583;50.946;6.954;2023-02-02T07:51:21;22.17;;;6.43;;
5129;SDS011;2583;50.946;6.954;2023-02-02T07:53:51;17.63;;;7.20;;
5129;SDS011;2583;50.946;6.954;2023-02-02T07:56:20;19.30;;;7.00;;
5129;SDS011;2583;50.946;6.954;2023-02-02T07:58:52;20.33;;;7.70;;
5129;SDS011;2583;50.946;6.954;2023-02-02T08:01:21;21.07;;;6.90;;
5129;SDS011;2583;50.946;6.954;2023-02-02T08:03:51;13.10;;;6.03;;
5129;SDS011;2583;50.946;6.954;2023-02-02T08:06:20;12.87;;;6.00;;
5129;SDS011;2583;50.946;6.954;2023-02-02T08:08:49;20.50;;;7.70;;
5129;SDS011;2583;50.946;6.954;2023-02-02T08:11:17;13.33;;;6.60;;
5129;SDS011;2583;50.946;6.954;2023-02-02T08:13:47;16.70;;;6.60;;
5129;SDS011;2583;50.946;6.954;2023-02-02T08:16:15;18.33;;;6.43;;
5129;SDS011;2583;50.946;6.954;2023-02-02T08:18:43;19.40;;;7.10;;
5129;SDS011;2583;50.946;6.954;2023-02-02T08:21:10;17.20;;;6.90;;
5129;SDS011;2583;50.946;6.954;2023-02-02T08:23:37;23.48;;;7.20;;
5129;SDS011;2583;50.946;6.954;2023-02-02T08:26:10;16.80;;;6.95;;
5129;SDS011;2583;50.946;6.954;2023-02-02T08:28:40;11.97;;;5.93;;
5129;SDS011;2583;50.946;6.954;2023-02-02T08:31:09;17.10;;;7.47;;
5129;SDS011;2583;50.946;6.954;2023-02-02T08:33:38;21.37;;;7.97;;
5129;SDS011;2583;50.946;6.954;2023-02-02T08:36:08;13.70;;;7.13;;
5129;SDS011;2583;50.946;6.954;2023-02-02T08:38:39;16.23;;;6.37;;
5129;SDS011;2583;50.946;6.954;2023-02-02T08:41:07;13.30;;;7.07;;
5129;SDS011;2583;50.946;6.954;2023-02-02T08:43:35;19.23;;;7.70;;
5129;SDS011;2583;50.946;6.954;2023-02-02T08:46:03;20.27;;;8.30;;
5129;SDS011;2583;50.946;6.954;2023-02-02T08:48:31;16.90;;;7.10;;
5129;SDS011;2583;50.946;6.954;2023-02-02T08:50:59;16.57;;;7.70;;
5129;SDS011;2583;50.946;6.954;2023-02-02T08:53:26;18.37;;;8.27;;
5129;SDS011;2583;50.946;6.954;2023-02-02T08:56:03;17.10;;;8.57;;
5129;SDS011;2583;50.946;6.954;2023-02-02T08:58:38;41.57;;;11.60;;
5129;SDS011;2583;50.946;6.954;2023-02-02T09:01:06;16.17;;;7.70;;
5129;SDS011;2583;50.946;6.954;2023-02-02T09:03:34;25.77;;;9.27;;
5129;SDS011;2583;50.946;6.954;2023-02-02T09:06:05;18.57;;;8.80;;
5129;SDS011;2583;50.946;6.954;2023-02-02T09:08:33;17.77;;;8.20;;
5129;SDS011;2583;50.946;6.954;2023-02-02T09:11:04;12.90;;;7.60;;
5129;SDS011;2583;50.946;6.954;2023-02-02T09:13:32;16.30;;;7.90;;
5129;SDS011;2583;50.946;6.954;2023-02-02T09:16:00;21.70;;;8.87;;
5129;SDS011;2583;50.946;6.954;2023-02-02T09:18:28;19.47;;;9.97;;
5129;SDS011;2583;50.946;6.954;2023-02-02T09:20:58;19.17;;;8.00;;
5129;SDS011;2583;50.946;6.954;2023-02-02T09:23:28;15.70;;;9.33;;
5129;SDS011;2583;50.946;6.954;2023-02-02T09:28:40;19.73;;;9.60;;
5129;SDS011;2583;50.946;6.954;2023-02-02T09:31:08;13.30;;;8.20;;
5129;SDS011;2583;50.946;6.954;2023-02-02T09:33:35;17.30;;;8.20;;
5129;SDS011;2583;50.946;6.954;2023-02-02T09:38:37;17.30;;;9.70;;
5129;SDS011;2583;50.946;6.954;2023-02-02T09:41:14;11.90;;;7.78;;
5129;SDS011;2583;50.946;6.954;2023-02-02T09:52:24;19.57;;;9.13;;
5129;SDS011;2583;50.946;6.954;2023-02-02T09:55:14;15.83;;;8.20;;
5129;SDS011;2583;50.946;6.954;2023-02-02T10:00:43;15.60;;;8.50;;
5129;SDS011;2583;50.946;6.954;2023-02-02T10:08:41;18.13;;;7.77;;
5129;SDS011;2583;50.946;6.954;2023-02-02T10:14:13;14.60;;;8.30;;
5129;SDS011;2583;50.946;6.954;2023-02-02T10:16:45;16.87;;;8.40;;
5129;SDS011;2583;50.946;6.954;2023-02-02T10:19:14;18.73;;;9.40;;
5129;SDS011;2583;50.946;6.954;2023-02-02T10:21:50;7.97;;;6.90;;
5129;SDS011;2583;50.946;6.954;2023-02-02T10:24:25;10.83;;;6.67;;
5129;SDS011;2583;50.946;6.954;2023-02-02T10:26:55;10.73;;;7.97;;
5129;SDS011;2583;50.946;6.954;2023-02-02T10:30:02;15.87;;;7.30;;
5129;SDS011;2583;50.946;6.954;2023-02-02T10:32:32;11.93;;;7.77;;
5129;SDS011;2583;50.946;6.954;2023-02-02T10:41:01;12.33;;;8.83;;
5129;SDS011;2583;50.946;6.954;2023-02-02T10:46:39;12.18;;;8.50;;
5129;SDS011;2583;50.946;6.954;2023-02-02T10:49:15;14.52;;;8.20;;
5129;SDS011;2583;50.946;6.954;2023-02-02T10:52:04;14.03;;;7.70;;
5129;SDS011;2583;50.946;6.954;2023-02-02T11:00:12;10.93;;;7.67;;
5129;SDS011;2583;50.946;6.954;2023-02-02T11:02:48;19.10;;;8.60;;
5129;SDS011;2583;50.946;6.954;2023-02-02T11:05:20;14.05;;;8.23;;
5129;SDS011;2583;50.946;6.954;2023-02-02T11:10:51;16.57;;;9.00;;
5129;SDS011;2583;50.946;6.954;2023-02-02T11:13:23;12.33;;;7.40;;
5129;SDS011;2583;50.946;6.954;2023-02-02T11:18:43;13.17;;;6.70;;
5129;SDS011;2583;50.946;6.954;2023-02-02T11:23:59;15.13;;;7.00;;
5129;SDS011;2583;50.946;6.954;2023-02-02T11:26:46;13.80;;;7.30;;
5129;SDS011;2583;50.946;6.954;2023-02-02T11:29:23;11.43;;;8.17;;
5129;SDS011;2583;50.946;6.954;2023-02-02T11:31:54;13.57;;;6.43;;
5129;SDS011;2583;50.946;6.954;2023-02-02T11:34:23;15.10;;;7.90;;
5129;SDS011;2583;50.946;6.954;2023-02-02T11:37:02;20.20;;;8.83;;
5129;SDS011;2583;50.946;6.954;2023-02-02T11:39:45;11.83;;;6.77;;
5129;SDS011;2583;50.946;6.954;2023-02-02T11:42:16;7.70;;;6.50;;
5129;SDS011;2583;50.946;6.954;2023-02-02T11:44:46;13.80;;;6.53;;
5129;SDS011;2583;50.946;6.954;2023-02-02T11:47:19;19.80;;;9.67;;
5129;SDS011;2583;50.946;6.954;2023-02-02T11:49:52;7.40;;;5.83;;
5129;SDS011;2583;50.946;6.954;2023-02-02T11:52:24;11.82;;;7.53;;
5129;SDS011;2583;50.946;6.954;2023-02-02T11:54:55;13.10;;;6.80;;
5129;SDS011;2583;50.946;6.954;2023-02-02T11:57:25;13.33;;;6.20;;
5129;SDS011;2583;50.946;6.954;2023-02-02T12:00:14;12.23;;;6.60;;
5129;SDS011;2583;50.946;6.954;2023-02-02T12:02:44;15.53;;;7.17;;
5129;SDS011;2583;50.946;6.954;2023-02-02T12:07:45;12.03;;;6.63;;
5129;SDS011;2583;50.946;6.954;2023-02-02T12:13:30;18.97;;;6.93;;
5129;SDS011;2583;50.946;6.954;2023-02-02T12:16:35;8.07;;;5.87;;
5129;SDS011;2583;50.946;6.954;2023-02-02T12:19:32;12.90;;;6.47;;
5129;SDS011;2583;50.946;6.954;2023-02-02T12:22:21;9.37;;;6.30;;
5129;SDS011;2583;50.946;6.954;2023-02-02T12:25:02;12.93;;;6.70;;
5129;SDS011;2583;50.946;6.954;2023-02-02T12:27:50;13.00;;;6.53;;
5129;SDS011;2583;50.946;6.954;2023-02-02T12:33:15;14.53;;;6.53;;
5129;SDS011;2583;50.946;6.954;2023-02-02T12:38:27;6.87;;;6.23;;
5129;SDS011;2583;50.946;6.954;2023-02-02T12:44:18;14.00;;;7.00;;
5129;SDS011;2583;50.946;6.954;2023-02-02T12:47:16;8.87;;;5.77;;
5129;SDS011;2583;50.946;6.954;2023-02-02T12:55:51;13.13;;;6.80;;
5129;SDS011;2583;50.946;6.954;2023-02-02T12:58:52;13.57;;;6.23;;
5129;SDS011;2583;50.946;6.954;2023-02-02T13:04:47;12.70;;;5.20;;
5129;SDS011;2583;50.946;6.954;2023-02-02T13:10:16;7.37;;;5.40;;
5129;SDS011;2583;50.946;6.954;2023-02-02T13:13:08;15.83;;;4.97;;
5129;SDS011;2583;50.946;6.954;2023-02-02T13:15:43;8.10;;;5.38;;
5129;SDS011;2583;50.946;6.954;2023-02-02T13:18:19;16.75;;;5.90;;
5129;SDS011;2583;50.946;6.954;2023-02-02T13:20:55;11.33;;;6.47;;
5129;SDS011;2583;50.946;6.954;2023-02-02T13:23:31;15.60;;;5.00;;
5129;SDS011;2583;50.946;6.954;2023-02-02T13:31:19;9.57;;;4.78;;
5129;SDS011;2583;50.946;6.954;2023-02-02T13:34:09;6.85;;;4.88;;
5129;SDS011;2583;50.946;6.954;2023-02-02T13:55:00;10.63;;;3.40;;
5129;SDS011;2583;50.946;6.954;2023-02-02T14:01:03;9.05;;;3.00;;
5129;SDS011;2583;50.946;6.954;2023-02-02T14:11:18;12.03;;;2.93;;
5129;SDS011;2583;50.946;6.954;2023-02-02T14:13:56;6.17;;;3.27;;
5129;SDS011;2583;50.946;6.954;2023-02-02T14:16:49;12.77;;;3.60;;
5129;SDS011;2583;50.946;6.954;2023-02-02T14:21:57;8.50;;;3.40;;
5129;SDS011;2583;50.946;6.954;2023-02-02T14:34:55;6.50;;;3.23;;
5129;SDS011;2583;50.946;6.954;2023-02-02T14:37:51;12.80;;;3.00;;
5129;SDS011;2583;50.946;6.954;2023-02-02T14:40:52;7.17;;;2.37;;
5129;SDS011;2583;50.946;6.954;2023-02-02T14:43:33;9.03;;;2.90;;
5129;SDS011;2583;50.946;6.954;2023-02-02T14:46:19;7.33;;;2.73;;
5129;SDS011;2583;50.946;6.954;2023-02-02T14:51:20;5.83;;;2.77;;
5129;SDS011;2583;50.946;6.954;2023-02-02T14:53:53;18.93;;;2.73;;
5129;SDS011;2583;50.946;6.954;2023-02-02T14:56:38;8.10;;;2.63;;
5129;SDS011;2583;50.946;6.954;2023-02-02T14:59:16;5.57;;;2.83;;
5129;SDS011;2583;50.946;6.954;2023-02-02T15:04:50;5.77;;;2.40;;
5129;SDS011;2583;50.946;6.954;2023-02-02T15:09:48;7.27;;;2.50;;
5129;SDS011;2583;50.946;6.954;2023-02-02T15:15:08;5.70;;;2.70;;
5129;SDS011;2583;50.946;6.954;2023-02-02T15:18:01;9.60;;;2.97;;
5129;SDS011;2583;50.946;6.954;2023-02-02T15:20:51;8.90;;;2.47;;
5129;SDS011;2583;50.946;6.954;2023-02-02T15:23:34;4.70;;;2.17;;
5129;SDS011;2583;50.946;6.954;2023-02-02T15:28:55;7.43;;;2.80;;
5129;SDS011;2583;50.946;6.954;2023-02-02T15:31:31;5.30;;;2.80;;
5129;SDS011;2583;50.946;6.954;2023-02-02T15:34:15;13.38;;;2.85;;
5129;SDS011;2583;50.946;6.954;2023-02-02T15:36:51;8.30;;;2.10;;
5129;SDS011;2583;50.946;6.954;2023-02-02T15:39:29;5.20;;;2.20;;
5129;SDS011;2583;50.946;6.954;2023-02-02T15:41:57;5.47;;;2.50;;
5129;SDS011;2583;50.946;6.954;2023-02-02T15:44:45;7.67;;;3.33;;
5129;SDS011;2583;50.946;6.954;2023-02-02T15:47:16;8.30;;;1.87;;
5129;SDS011;2583;50.946;6.954;2023-02-02T15:49:49;7.20;;;3.27;;
5129;SDS011;2583;50.946;6.954;2023-02-02T15:52:20;14.53;;;2.67;;
5129;SDS011;2583;50.946;6.954;2023-02-02T15:54:51;6.90;;;3.00;;
5129;SDS011;2583;50.946;6.954;2023-02-02T15:57:31;6.10;;;2.33;;
5129;SDS011;2583;50.946;6.954;2023-02-02T16:00:01;5.73;;;2.10;;
5129;SDS011;2583;50.946;6.954;2023-02-02T16:02:48;8.40;;;3.07;;
5129;SDS011;2583;50.946;6.954;2023-02-02T16:08:02;7.33;;;1.87;;
5129;SDS011;2583;50.946;6.954;2023-02-02T16:10:33;9.07;;;2.60;;
5129;SDS011;2583;50.946;6.954;2023-02-02T16:13:01;6.10;;;2.30;;
5129;SDS011;2583;50.946;6.954;2023-02-02T16:15:28;12.33;;;2.60;;
5129;SDS011;2583;50.946;6.954;2023-02-02T16:20:24;10.40;;;3.50;;
5129;SDS011;2583;50.946;6.954;2023-02-02T16:22:53;10.55;;;2.33;;
5129;SDS011;2583;50.946;6.954;2023-02-02T16:25:28;13.13;;;2.97;;
5129;SDS011;2583;50.946;6.954;2023-02-02T16:27:58;8.47;;;2.60;;
5129;SDS011;2583;50.946;6.954;2023-02-02T16:30:30;4.43;;;1.83;;
5129;SDS011;2583;50.946;6.954;2023-02-02T16:35:53;9.60;;;2.90;;
5129;SDS011;2583;50.946;6.954;2023-02-02T16:43:35;8.87;;;2.33;;
5129;SDS011;2583;50.946;6.954;2023-02-02T16:46:04;12.13;;;2.40;;
5129;SDS011;2583;50.946;6.954;2023-02-02T16:48:37;13.20;;;2.40;;
5129;SDS011;2583;50.946;6.954;2023-02-02T16:53:33;9.03;;;2.20;;
5129;SDS011;2583;50.946;6.954;2023-02-02T16:56:01;3.40;;;1.83;;
5129;SDS011;2583;50.946;6.954;2023-02-02T16:58:38;3.25;;;2.42;;
5129;SDS011;2583;50.946;6.954;2023-02-02T17:01:09;8.77;;;2.10;;
5129;SDS011;2583;50.946;6.954;2023-02-02T17:03:46;6.40;;;1.88;;
5129;SDS011;2583;50.946;6.954;2023-02-02T17:06:21;6.87;;;2.20;;
5129;SDS011;2583;50.946;6.954;2023-02-02T17:09:15;10.53;;;2.53;;
5129;SDS011;2583;50.946;6.954;2023-02-02T17:11:55;8.90;;;2.60;;
5129;SDS011;2583;50.946;6.954;2023-02-02T17:14:32;8.97;;;2.80;;
5129;SDS011;2583;50.946;6.954;2023-02-02T17:17:01;5.70;;;2.40;;
5129;SDS011;2583;50.946;6.954;2023-02-02T17:19:30;9.63;;;2.20;;
5129;SDS011;2583;50.946;6.954;2023-02-02T17:21:58;9.20;;;2.13;;
5129;SDS011;2583;50.946;6.954;2023-02-02T17:24:27;4.60;;;2.07;;
5129;SDS011;2583;50.946;6.954;2023-02-02T17:26:54;5.40;;;1.90;;
5129;SDS011;2583;50.946;6.954;2023-02-02T17:29:21;7.00;;;2.83;;
5129;SDS011;2583;50.946;6.954;2023-02-02T17:31:48;8.10;;;2.70;;
5129;SDS011;2583;50.946;6.954;2023-02-02T17:34:17;6.33;;;3.00;;
5129;SDS011;2583;50.946;6.954;2023-02-02T17:36:44;5.33;;;2.70;;
5129;SDS011;2583;50.946;6.954;2023-02-02T17:39:11;3.67;;;2.47;;
5129;SDS011;2583;50.946;6.954;2023-02-02T17:41:38;5.47;;;2.77;;
5129;SDS011;2583;50.946;6.954;2023-02-02T17:44:05;9.97;;;3.67;;
5129;SDS011;2583;50.946;6.954;2023-02-02T17:46:32;4.40;;;2.43;;
5129;SDS011;2583;50.946;6.954;2023-02-02T17:49:00;4.93;;;2.63;;
5129;SDS011;2583;50.946;6.954;2023-02-02T17:51:27;4.23;;;2.30;;
5129;SDS011;2583;50.946;6.954;2023-02-02T17:53:55;6.88;;;3.28;;
5129;SDS011;2583;50.946;6.954;2023-02-02T17:56:25;9.02;;;4.00;;
5129;SDS011;2583;50.946;6.954;2023-02-02T17:58:52;7.17;;;3.47;;
5129;SDS011;2583;50.946;6.954;2023-02-02T18:01:19;7.00;;;3.17;;
5129;SDS011;2583;50.946;6.954;2023-02-02T18:03:46;14.77;;;3.20;;
5129;SDS011;2583;50.946;6.954;2023-02-02T18:06:13;15.07;;;3.67;;
5129;SDS011;2583;50.946;6.954;2023-02-02T18:08:40;7.53;;;3.13;;
5129;SDS011;2583;50.946;6.954;2023-02-02T18:11:09;12.47;;;3.50;;
5129;SDS011;2583;50.946;6.954;2023-02-02T18:13:39;7.30;;;3.50;;
5129;SDS011;2583;50.946;6.954;2023-02-02T18:16:08;5.23;;;3.53;;
5129;SDS011;2583;50.946;6.954;2023-02-02T18:18:36;9.03;;;3.93;;
5129;SDS011;2583;50.946;6.954;2023-02-02T18:21:10;6.37;;;3.57;;
5129;SDS011;2583;50.946;6.954;2023-02-02T18:23:39;7.67;;;3.80;;
5129;SDS011;2583;50.946;6.954;2023-02-02T18:26:10;7.30;;;4.33;;
5129;SDS011;2583;50.946;6.954;2023-02-02T18:28:39;15.93;;;4.60;;